createdAt,value
2023-02-28T00:00:57.599Z,97581.09
2023-02-28T00:03:47.277Z,97580.47
2023-02-28T00:06:37.606Z,97576.25
2023-02-28T00:09:27.710Z,97572.19
2023-02-28T00:12:17.707Z,97574.19
2023-02-28T00:15:09.513Z,97572.38
2023-02-28T00:18:01.021Z,97574.25
2023-02-28T00:20:51.234Z,97573.41
2023-02-28T00:23:41.426Z,97572.81
2023-02-28T00:26:30.967Z,97566.53
2023-02-28T00:29:20.986Z,97554.56
2023-02-28T00:32:10.687Z,97562.91
2023-02-28T00:35:02.804Z,97559.25
2023-02-28T00:37:52.702Z,97558.22
2023-02-28T00:40:42.760Z,97555.81
2023-02-28T00:43:35.514Z,97556.41
2023-02-28T00:46:25.249Z,97558.47
2023-02-28T00:49:14.539Z,97553.56
2023-02-28T00:52:08.762Z,97557.84
2023-02-28T00:54:58.650Z,97547.50
2023-02-28T00:57:48.377Z,97562.09
2023-02-28T01:00:38.953Z,97554.41
2023-02-28T01:03:28.825Z,97550.38
2023-02-28T01:06:18.473Z,97549.75
2023-02-28T01:09:10.285Z,97548.31
2023-02-28T01:12:00.486Z,97547.31
2023-02-28T01:14:50.708Z,97540.84
2023-02-28T01:17:40.469Z,97543.47
2023-02-28T01:20:30.738Z,97552.19
2023-02-28T01:23:21.057Z,97532.94
2023-02-28T01:26:15.313Z,97543.28
2023-02-28T01:29:07.814Z,97536.97
2023-02-28T01:31:58.618Z,97532.53
2023-02-28T01:34:48.663Z,97535.78
2023-02-28T01:37:38.460Z,97535.38
2023-02-28T01:40:28.650Z,97528.09
2023-02-28T01:43:24.882Z,97526.06
2023-02-28T01:46:15.428Z,97532.75
2023-02-28T01:49:10.472Z,97528.88
2023-02-28T01:52:02.064Z,97532.13
2023-02-28T01:54:54.345Z,97533.75
2023-02-28T01:57:46.119Z,97524.44
2023-02-28T02:00:42.116Z,97527.06
2023-02-28T02:03:33.914Z,97527.06
2023-02-28T02:06:25.418Z,97517.97
2023-02-28T02:09:15.864Z,97524.03
2023-02-28T02:12:24.784Z,97524.44
2023-02-28T02:15:18.761Z,97523.59
2023-02-28T02:18:17.350Z,97516.31
2023-02-28T02:21:43.488Z,97515.50
2023-02-28T02:24:52.703Z,97515.72
2023-02-28T02:28:14.147Z,97512.69
2023-02-28T02:31:27.660Z,97521.59
2023-02-28T02:34:45.627Z,97514.31
2023-02-28T02:38:00.195Z,97521.59
2023-02-28T02:40:53.552Z,97517.56
2023-02-28T02:43:48.081Z,97519.41
2023-02-28T02:46:40.726Z,97521.22
2023-02-28T02:49:34.160Z,97531.56
2023-02-28T02:52:34.288Z,97519.41
2023-02-28T02:55:25.102Z,97531.13
2023-02-28T02:58:17.848Z,97529.53
2023-02-28T03:01:08.130Z,97532.38
2023-02-28T03:04:00.513Z,97530.53
2023-02-28T03:06:50.059Z,97525.28
2023-02-28T03:09:41.068Z,97535.00
2023-02-28T03:12:43.348Z,97530.94
2023-02-28T03:15:39.167Z,97529.53
2023-02-28T03:18:39.518Z,97530.13
2023-02-28T03:21:33.481Z,97528.50
2023-02-28T03:24:28.599Z,97522.84
2023-02-28T03:27:26.153Z,97524.47
2023-02-28T03:30:22.968Z,97516.75
2023-02-28T03:33:15.754Z,97523.66
2023-02-28T03:36:07.768Z,97524.66
2023-02-28T03:39:03.401Z,97529.53
2023-02-28T03:41:56.826Z,97522.84
2023-02-28T03:44:51.719Z,97532.56
2023-02-28T03:47:47.396Z,97522.84
2023-02-28T03:50:39.464Z,97525.88
2023-02-28T03:53:31.646Z,97527.28
2023-02-28T03:56:23.690Z,97522.81
2023-02-28T03:59:16.942Z,97519.59
2023-02-28T04:02:08.376Z,97525.25
2023-02-28T04:09:56.662Z,97526.06
2023-02-28T04:12:46.460Z,97528.09
2023-02-28T04:15:39.342Z,97529.09
2023-02-28T04:18:31.227Z,97533.38
2023-02-28T04:21:24.041Z,97531.16
2023-02-28T04:24:16.508Z,97539.84
2023-02-28T04:27:06.545Z,97538.63
2023-02-28T04:29:57.215Z,97535.41
2023-02-28T04:32:48.455Z,97532.75
2023-02-28T04:35:40.227Z,97540.44
2023-02-28T04:38:32.706Z,97543.50
2023-02-28T04:41:22.520Z,97543.50
2023-02-28T04:44:12.475Z,97550.97
2023-02-28T04:47:02.668Z,97544.09
2023-02-28T04:49:52.950Z,97557.66
2023-02-28T04:52:47.560Z,97554.03
2023-02-28T04:55:43.389Z,97548.56
2023-02-28T04:58:39.706Z,97548.56
2023-02-28T05:01:31.894Z,97561.28
2023-02-28T05:04:22.433Z,97558.88
2023-02-28T05:07:13.150Z,97556.25
2023-02-28T05:10:05.031Z,97564.13
2023-02-28T05:12:56.381Z,97563.72
2023-02-28T05:15:46.322Z,97565.94
2023-02-28T05:18:36.466Z,97557.84
2023-02-28T05:21:29.025Z,97564.34
2023-02-28T05:24:24.038Z,97569.00
2023-02-28T05:27:15.146Z,97563.91
2023-02-28T05:30:05.845Z,97564.13
2023-02-28T05:32:56.028Z,97569.38
2023-02-28T05:35:46.003Z,97571.81
2023-02-28T05:38:37.779Z,97570.63
2023-02-28T05:41:29.387Z,97575.06
2023-02-28T05:44:22.399Z,97574.47
2023-02-28T05:47:12.030Z,97575.69
2023-02-28T05:50:02.509Z,97581.13
2023-02-28T05:52:52.687Z,97576.88
2023-02-28T05:55:42.867Z,97582.34
2023-02-28T05:58:33.177Z,97576.69
2023-02-28T06:01:34.751Z,97584.16
2023-02-28T06:04:31.794Z,97586.81
2023-02-28T06:07:23.859Z,97585.16
2023-02-28T06:10:15.108Z,97587.19
2023-02-28T06:13:05.824Z,97592.47
2023-02-28T06:15:55.860Z,97585.75
2023-02-28T06:18:47.448Z,97587.19
2023-02-28T06:21:38.482Z,97597.28
2023-02-28T06:24:32.262Z,97590.22
2023-02-28T06:27:22.438Z,97588.41
2023-02-28T06:30:13.545Z,97594.50
2023-02-28T06:33:03.230Z,97601.78
2023-02-28T06:35:55.109Z,97596.94
2023-02-28T06:38:47.413Z,97596.31
2023-02-28T06:41:53.986Z,97603.22
2023-02-28T06:44:44.620Z,97617.19
2023-02-28T06:47:34.441Z,97618.81
2023-02-28T06:50:24.361Z,97620.41
2023-02-28T06:53:16.074Z,97622.03
2023-02-28T06:56:08.095Z,97624.88
2023-02-28T06:58:58.302Z,97620.66
2023-02-28T07:01:48.765Z,97620.44
2023-02-28T07:04:41.875Z,97621.66
2023-02-28T07:07:31.735Z,97624.06
2023-02-28T07:10:23.163Z,97616.00
2023-02-28T07:13:13.674Z,97625.53
2023-02-28T07:16:05.543Z,97624.91
2023-02-28T07:18:55.491Z,97618.81
2023-02-28T07:21:45.146Z,97614.81
2023-02-28T07:24:34.513Z,97620.06
2023-02-28T07:27:26.897Z,97617.66
2023-02-28T07:30:17.436Z,97616.03
2023-02-28T07:33:07.541Z,97622.91
2023-02-28T07:36:03.886Z,97616.84
2023-02-28T07:38:56.327Z,97621.31
2023-02-28T07:41:46.214Z,97619.44
2023-02-28T07:44:41.638Z,97615.63
2023-02-28T07:47:32.445Z,97616.44
2023-02-28T07:50:27.042Z,97628.97
2023-02-28T07:53:17.430Z,97626.97
2023-02-28T07:56:08.568Z,97634.03
2023-02-28T07:58:58.528Z,97637.28
2023-02-28T08:01:51.662Z,97641.91
2023-02-28T08:04:43.960Z,97634.25
2023-02-28T08:07:34.793Z,97636.25
2023-02-28T08:10:25.402Z,97631.34
2023-02-28T08:13:15.831Z,97634.59
2023-02-28T08:16:06.046Z,97630.97
2023-02-28T08:18:57.709Z,97630.31
2023-02-28T08:21:48.145Z,97635.34
2023-02-28T08:24:38.660Z,97628.44
2023-02-28T08:27:28.843Z,97631.28
2023-02-28T08:30:18.928Z,97633.66
2023-02-28T08:33:09.082Z,97629.41
2023-02-28T08:36:00.450Z,97632.81
2023-02-28T08:38:50.358Z,97629.97
2023-02-28T08:41:40.303Z,97629.31
2023-02-28T08:44:30.515Z,97632.75
2023-02-28T08:47:23.976Z,97634.38
2023-02-28T08:50:16.427Z,97633.53
2023-02-28T08:53:07.603Z,97642.41
2023-02-28T08:56:07.339Z,97643.41
2023-02-28T08:58:58.136Z,97637.88
2023-02-28T09:01:48.143Z,97640.28
2023-02-28T09:04:38.280Z,97643.09
2023-02-28T09:07:28.174Z,97654.44
2023-02-28T09:10:19.825Z,97653.56
2023-02-28T09:13:09.703Z,97655.53
2023-02-28T09:16:00.834Z,97658.78
2023-02-28T09:18:51.088Z,97665.25
2023-02-28T09:21:41.615Z,97661.22
2023-02-28T09:24:33.929Z,97663.63
2023-02-28T09:27:25.375Z,97654.66
2023-02-28T09:30:17.615Z,97656.63
2023-02-28T09:33:07.618Z,97662.66
2023-02-28T09:36:02.051Z,97658.00
2023-02-28T09:38:54.329Z,97665.22
2023-02-28T09:41:49.952Z,97664.50
2023-02-28T09:44:45.455Z,97664.06
2023-02-28T09:47:40.770Z,97669.28
2023-02-28T09:50:35.077Z,97669.09
2023-02-28T09:53:29.957Z,97665.25
2023-02-28T09:56:28.030Z,97670.50
2023-02-28T09:59:28.794Z,97681.84
2023-02-28T10:02:44.674Z,97682.19
2023-02-28T10:05:37.841Z,97685.00
2023-02-28T10:08:29.828Z,97683.81
2023-02-28T10:11:21.780Z,97690.44
2023-02-28T10:14:17.126Z,97689.72
2023-02-28T10:17:09.759Z,97693.56
2023-02-28T10:20:09.172Z,97700.31
2023-02-28T10:23:08.374Z,97706.19
2023-02-28T10:26:01.708Z,97694.00
2023-02-28T10:28:51.598Z,97698.56
2023-02-28T10:31:41.587Z,97696.06
2023-02-28T10:34:31.851Z,97697.75
2023-02-28T10:37:27.032Z,97690.34
2023-02-28T10:40:30.515Z,97691.44
2023-02-28T10:43:23.795Z,97693.34
2023-02-28T10:46:27.258Z,97683.13
2023-02-28T10:49:20.130Z,97691.34
2023-02-28T10:52:12.370Z,97693.13
2023-02-28T10:55:23.169Z,97693.91
2023-02-28T10:58:30.570Z,97691.50
2023-02-28T11:01:22.052Z,97689.72
2023-02-28T11:04:23.239Z,97680.72
2023-02-28T11:07:23.008Z,97684.25
2023-02-28T11:10:23.251Z,97689.97
2023-02-28T11:13:20.530Z,97681.72
2023-02-28T11:16:12.205Z,97689.38
2023-02-28T11:19:02.436Z,97691.47
2023-02-28T11:21:56.260Z,97694.38
2023-02-28T11:24:49.054Z,97694.97
2023-02-28T11:28:03.507Z,97687.94
2023-02-28T11:31:03.644Z,97685.69
2023-02-28T11:33:55.089Z,97686.84
2023-02-28T11:36:45.913Z,97678.63
2023-02-28T11:39:36.353Z,97686.44
2023-02-28T11:42:34.929Z,97684.84
2023-02-28T11:45:44.170Z,97671.91
2023-02-28T11:48:39.510Z,97667.19
2023-02-28T11:51:36.781Z,97664.19
2023-02-28T11:54:45.373Z,97667.91
2023-02-28T11:57:56.366Z,97660.41
2023-02-28T12:01:03.873Z,97661.94
2023-02-28T12:04:01.153Z,97657.56
2023-02-28T12:06:53.464Z,97655.59
2023-02-28T12:09:49.901Z,97650.03
2023-02-28T12:12:50.538Z,97650.72
2023-02-28T12:15:50.559Z,97664.81
2023-02-28T12:19:04.928Z,97652.94
2023-02-28T12:22:13.628Z,97652.94
2023-02-28T12:25:38.784Z,97645.31
2023-02-28T12:28:30.439Z,97649.81
2023-02-28T12:31:23.112Z,97649.00
2023-02-28T12:34:19.060Z,97651.22
2023-02-28T12:37:12.716Z,97646.47
2023-02-28T12:40:07.311Z,97641.28
2023-02-28T12:42:59.984Z,97637.13
2023-02-28T12:45:52.668Z,97647.00
2023-02-28T12:48:47.390Z,97636.78
2023-02-28T12:51:38.522Z,97635.25
2023-02-28T12:54:31.794Z,97628.31
2023-02-28T12:57:28.288Z,97627.84
2023-02-28T13:00:21.308Z,97625.31
2023-02-28T13:03:35.032Z,97629.22
2023-02-28T13:06:57.582Z,97627.72
2023-02-28T13:09:55.069Z,97616.97
2023-02-28T13:12:51.379Z,97616.97
2023-02-28T13:15:46.468Z,97611.41
2023-02-28T13:18:40.916Z,97614.63
2023-02-28T13:21:34.850Z,97615.84
2023-02-28T13:24:43.407Z,97627.28
2023-02-28T13:27:40.508Z,97618.81
2023-02-28T13:31:06.375Z,97619.59
2023-02-28T13:34:17.328Z,97612.88
2023-02-28T13:37:35.841Z,97623.38
2023-02-28T13:40:38.190Z,97620.41
2023-02-28T13:44:06.453Z,97612.44
2023-02-28T13:47:35.903Z,97617.75
2023-02-28T13:50:38.860Z,97624.03
2023-02-28T13:54:00.999Z,97623.06
2023-02-28T13:56:59.566Z,97612.63
2023-02-28T13:59:54.862Z,97612.25
2023-02-28T14:02:55.716Z,97612.03
2023-02-28T14:05:45.808Z,97617.53
2023-02-28T14:08:36.613Z,97606.00
2023-02-28T14:11:29.712Z,97615.94
2023-02-28T14:14:52.142Z,97617.31
2023-02-28T14:17:43.405Z,97619.88
2023-02-28T14:20:34.171Z,97611.41
2023-02-28T14:23:41.861Z,97614.88
2023-02-28T14:26:57.216Z,97615.38
2023-02-28T14:30:08.170Z,97613.03
2023-02-28T14:33:11.048Z,97619.16
2023-02-28T14:36:07.514Z,97614.16
2023-02-28T14:38:59.248Z,97604.94
2023-02-28T14:41:49.312Z,97604.13
2023-02-28T14:44:39.104Z,97608.41
2023-02-28T14:47:30.906Z,97598.22
2023-02-28T14:50:23.665Z,97596.00
2023-02-28T14:53:19.818Z,97606.97
2023-02-28T14:56:19.816Z,97604.00
2023-02-28T14:59:35.294Z,97604.94
2023-02-28T15:02:26.675Z,97599.13
2023-02-28T15:05:26.698Z,97603.88
2023-02-28T15:08:17.977Z,97604.50
2023-02-28T15:11:08.753Z,97618.50
2023-02-28T15:13:58.044Z,97606.56
2023-02-28T15:16:48.166Z,97614.22
2023-02-28T15:19:39.264Z,97616.66
2023-02-28T15:22:36.750Z,97624.03
2023-02-28T15:25:26.498Z,97619.84
2023-02-28T15:28:18.169Z,97619.66
2023-02-28T15:31:21.956Z,97617.47
2023-02-28T15:34:23.258Z,97622.41
2023-02-28T15:37:36.311Z,97620.22
2023-02-28T15:40:29.047Z,97628.75
2023-02-28T15:43:19.499Z,97625.06
2023-02-28T15:46:11.044Z,97617.13
2023-02-28T15:49:00.423Z,97616.50
2023-02-28T15:51:51.664Z,97622.03
2023-02-28T15:54:43.924Z,97623.63
2023-02-28T15:57:33.780Z,97617.81
2023-02-28T16:00:24.761Z,97620.75
2023-02-28T16:03:27.391Z,97620.09
2023-02-28T16:06:33.423Z,97627.00
2023-02-28T16:09:22.873Z,97625.66
2023-02-28T16:12:14.883Z,97636.69
2023-02-28T16:15:09.129Z,97636.50
2023-02-28T16:17:59.873Z,97633.66
2023-02-28T16:20:49.712Z,97627.38
2023-02-28T16:23:38.902Z,97635.94
2023-02-28T16:26:29.502Z,97629.81
2023-02-28T16:29:26.699Z,97628.91
2023-02-28T16:32:18.020Z,97630.19
2023-02-28T16:35:12.477Z,97642.34
2023-02-28T16:38:02.596Z,97632.84
2023-02-28T16:40:53.009Z,97638.41
2023-02-28T16:43:42.418Z,97646.53
2023-02-28T16:46:36.989Z,97646.53
2023-02-28T16:49:26.601Z,97642.38
2023-02-28T16:52:16.765Z,97650.75
2023-02-28T16:55:07.209Z,97651.97
2023-02-28T16:57:58.874Z,97651.66
2023-02-28T17:00:48.420Z,97654.69
2023-02-28T17:03:41.471Z,97658.38
2023-02-28T17:06:32.679Z,97658.06
2023-02-28T17:09:28.315Z,97672.91
2023-02-28T17:12:20.692Z,97676.56
2023-02-28T17:15:12.658Z,97680.78
2023-02-28T17:18:02.893Z,97685.59
2023-02-28T17:20:54.053Z,97690.91
2023-02-28T17:23:44.298Z,97695.16
2023-02-28T17:26:34.006Z,97688.91
2023-02-28T17:29:25.830Z,97693.66
2023-02-28T17:32:18.148Z,97699.09
2023-02-28T17:35:09.968Z,97697.47
2023-02-28T17:38:01.484Z,97701.28
2023-02-28T17:40:51.237Z,97705.66
2023-02-28T17:43:40.948Z,97701.53
2023-02-28T17:46:31.378Z,97710.88
2023-02-28T17:49:22.056Z,97709.63
2023-02-28T17:52:12.262Z,97723.78
2023-02-28T17:55:04.298Z,97720.88
2023-02-28T17:57:54.280Z,97715.47
2023-02-28T18:00:44.220Z,97715.69
2023-02-28T18:03:34.136Z,97717.88
2023-02-28T18:06:26.725Z,97721.31
2023-02-28T18:09:17.505Z,97710.34
2023-02-28T18:12:08.849Z,97713.00
2023-02-28T18:14:58.601Z,97716.34
2023-02-28T18:17:48.476Z,97709.28
2023-02-28T18:20:38.061Z,97707.31
2023-02-28T18:23:27.484Z,97713.88
2023-02-28T18:26:17.496Z,97707.31
2023-02-28T18:29:09.333Z,97711.09
2023-02-28T18:31:59.499Z,97712.19
2023-02-28T18:34:49.630Z,97706.09
2023-02-28T18:37:39.614Z,97711.28
2023-02-28T18:40:29.409Z,97713.94
2023-02-28T18:43:20.099Z,97711.28
2023-02-28T18:46:13.898Z,97713.25
2023-02-28T18:49:04.561Z,97713.25
2023-02-28T18:51:54.735Z,97716.72
2023-02-28T18:54:44.764Z,97707.03
2023-02-28T18:57:35.108Z,97705.41
2023-02-28T19:00:25.991Z,97712.88
2023-02-28T19:03:16.659Z,97711.28
2023-02-28T19:06:07.363Z,97707.47
2023-02-28T19:08:57.874Z,97706.66
2023-02-28T19:11:47.747Z,97712.97
2023-02-28T19:14:38.252Z,97700.28
2023-02-28T19:17:28.138Z,97703.38
2023-02-28T19:20:20.069Z,97699.69
2023-02-28T19:23:12.142Z,97695.44
2023-02-28T19:26:02.188Z,97700.13
2023-02-28T19:28:51.988Z,97694.38
2023-02-28T19:31:42.106Z,97695.19
2023-02-28T19:34:31.939Z,97702.06
2023-02-28T19:37:22.741Z,97699.25
2023-02-28T19:40:14.870Z,97695.66
2023-02-28T19:43:05.428Z,97701.69
2023-02-28T19:45:55.930Z,97699.69
2023-02-28T19:48:45.530Z,97702.56
2023-02-28T19:51:35.447Z,97701.31
2023-02-28T19:54:26.617Z,97698.09
2023-02-28T19:57:16.769Z,97701.44
2023-02-28T20:00:07.245Z,97696.28
2023-02-28T20:03:01.745Z,97698.66
2023-02-28T20:06:04.162Z,97704.47
2023-02-28T20:08:57.076Z,97704.53
2023-02-28T20:11:49.002Z,97704.31
2023-02-28T20:14:39.422Z,97699.69
2023-02-28T20:17:30.726Z,97704.69
2023-02-28T20:20:20.808Z,97693.94
2023-02-28T20:23:11.329Z,97692.31
2023-02-28T20:26:01.508Z,97695.31
2023-02-28T20:28:52.917Z,97698.53
2023-02-28T20:31:43.522Z,97695.19
2023-02-28T20:34:33.426Z,97711.56
2023-02-28T20:37:23.834Z,97705.44
2023-02-28T20:40:14.825Z,97709.88
2023-02-28T20:43:04.493Z,97707.16
2023-02-28T20:45:58.671Z,97707.22
2023-02-28T20:48:48.797Z,97704.03
2023-02-28T20:51:40.502Z,97705.88
2023-02-28T20:54:31.370Z,97703.59
2023-02-28T20:57:21.596Z,97702.09
2023-02-28T21:00:19.857Z,97696.00
2023-02-28T21:03:11.911Z,97698.22
2023-02-28T21:06:03.766Z,97689.38
2023-02-28T21:08:55.461Z,97684.88
2023-02-28T21:11:46.283Z,97687.38
2023-02-28T21:14:36.693Z,97691.19
2023-02-28T21:17:27.781Z,97685.63
2023-02-28T21:20:23.436Z,97683.50
2023-02-28T21:23:14.509Z,97690.69
2023-02-28T21:26:06.244Z,97686.75
2023-02-28T21:28:58.046Z,97687.47
2023-02-28T21:31:47.888Z,97686.81
2023-02-28T21:34:37.725Z,97701.75
2023-02-28T21:37:28.965Z,97683.78
2023-02-28T21:40:19.102Z,97686.66
2023-02-28T21:43:09.341Z,97687.63
2023-02-28T21:46:02.879Z,97679.97
2023-02-28T21:48:53.428Z,97676.06
2023-02-28T21:51:43.803Z,97678.94
2023-02-28T21:54:35.335Z,97678.03
2023-02-28T21:57:26.019Z,97672.75
2023-02-28T22:00:17.352Z,97678.63
2023-02-28T22:03:07.866Z,97682.03
2023-02-28T22:05:58.138Z,97676.88
2023-02-28T22:08:50.191Z,97684.09
2023-02-28T22:11:41.401Z,97670.38
2023-02-28T22:14:31.266Z,97677.31
2023-02-28T22:17:21.156Z,97681.00
2023-02-28T22:20:13.106Z,97681.88
2023-02-28T22:23:02.756Z,97680.25
2023-02-28T22:25:54.183Z,97691.31
2023-02-28T22:28:46.212Z,97682.78
2023-02-28T22:31:38.174Z,97677.94
2023-02-28T22:34:28.752Z,97676.75
2023-02-28T22:37:18.945Z,97676.06
2023-02-28T22:40:10.459Z,97670.88
2023-02-28T22:43:00.853Z,97679.25
2023-02-28T22:45:52.309Z,97676.09
2023-02-28T22:48:41.932Z,97688.25
2023-02-28T22:51:34.090Z,97676.63
2023-02-28T22:54:23.876Z,97675.72
2023-02-28T22:57:14.166Z,97675.16
2023-02-28T23:00:07.748Z,97672.06
2023-02-28T23:02:59.867Z,97677.13
2023-02-28T23:05:53.650Z,97674.69
2023-02-28T23:08:44.964Z,97679.31
2023-02-28T23:11:37.520Z,97686.63
2023-02-28T23:14:27.278Z,97678.06
2023-02-28T23:17:17.996Z,97675.16
2023-02-28T23:20:11.257Z,97676.31
2023-02-28T23:23:05.136Z,97669.19
2023-02-28T23:25:55.221Z,97667.69
2023-02-28T23:28:45.523Z,97674.63
2023-02-28T23:31:37.716Z,97673.81
2023-02-28T23:34:30.836Z,97668.50
2023-02-28T23:37:22.675Z,97670.22
2023-02-28T23:40:17.229Z,97660.03
2023-02-28T23:43:10.495Z,97652.06
2023-02-28T23:46:03.427Z,97660.16
2023-02-28T23:48:53.346Z,97652.34
2023-02-28T23:51:43.227Z,97657.56
2023-02-28T23:54:34.662Z,97653.09
2023-02-28T23:57:24.642Z,97652.78
